Time;durP1;ratioP1;P1;durP2;ratioP2;P2;SDS_P1;SDS_P2;PMS_P1;PMS_P2;Temp;Humidity;BMP_temperature;BMP_pressure;BME280_temperature;BME280_humidity;BME280_pressure;Samples;Min_cycle;Max_cycle;Signal;HPM_P1;HPM_P2
2021/05/25 00:01:52;;;;;;;6.95;1.20;;;;;;;12.50;86.05;101345.88;1705818;84;21052;-38
2021/05/25 00:04:18;;;;;;;2.10;1.17;;;;;;;12.43;86.20;101347.27;1705596;82;20967;-38
2021/05/25 00:06:45;;;;;;;1.47;0.90;;;;;;;12.36;86.33;101352.96;1705708;84;20963;-38
2021/05/25 00:09:13;;;;;;;1.75;1.60;;;;;;;12.26;86.51;101352.66;1705770;82;20943;-37
2021/05/25 00:11:41;;;;;;;2.70;1.17;;;;;;;12.17;86.73;101353.61;1705818;84;20974;-38
2021/05/25 00:14:09;;;;;;;4.75;1.70;;;;;;;12.07;86.92;101357.61;1705710;84;22249;-38
2021/05/25 00:16:38;;;;;;;4.53;1.32;;;;;;;12.00;87.18;101359.83;1705856;84;21021;-38
2021/05/25 00:19:05;;;;;;;6.70;1.40;;;;;;;11.95;87.42;101368.52;1705799;84;21021;-38
2021/05/25 00:21:33;;;;;;;7.10;1.30;;;;;;;11.90;87.56;101374.62;1705783;82;20954;-38
2021/05/25 00:24:00;;;;;;;6.08;1.22;;;;;;;11.86;87.82;101377.25;1685967;84;20899;-38
2021/05/25 00:26:27;;;;;;;4.90;1.27;;;;;;;11.81;87.94;101378.58;1705795;84;21642;-38
2021/05/25 00:28:54;;;;;;;3.22;1.22;;;;;;;11.74;88.16;101373.87;1705781;82;20944;-39
2021/05/25 00:31:20;;;;;;;2.00;1.12;;;;;;;11.68;88.29;101377.82;1705838;82;20911;-38
2021/05/25 00:33:47;;;;;;;3.77;1.20;;;;;;;11.61;88.41;101382.64;1705719;82;21026;-38
2021/05/25 00:36:13;;;;;;;1.37;1.10;;;;;;;11.53;88.58;101386.58;1705768;83;20950;-39
2021/05/25 00:38:40;;;;;;;3.85;1.25;;;;;;;11.46;88.75;101390.95;1705958;84;21098;-38
2021/05/25 00:41:06;;;;;;;0.80;0.80;;;;;;;11.40;88.92;101396.63;1705866;82;20918;-39
2021/05/25 00:43:34;;;;;;;8.15;1.20;;;;;;;11.34;89.09;101397.08;1705801;84;20962;-39
2021/05/25 00:46:00;;;;;;;1.30;1.20;;;;;;;11.29;89.33;101400.59;1705865;84;21077;-38
2021/05/25 00:48:27;;;;;;;3.67;1.10;;;;;;;11.24;89.54;101398.02;1705955;84;21022;-39
2021/05/25 00:50:55;;;;;;;4.37;1.20;;;;;;;11.23;89.77;101403.20;1705798;83;22177;-38
2021/05/25 00:53:22;;;;;;;2.42;0.98;;;;;;;11.17;89.99;101393.75;1705813;83;20926;-39
2021/05/25 00:55:49;;;;;;;3.08;1.20;;;;;;;11.15;90.07;101401.97;1705716;84;21002;-38
2021/05/25 00:58:16;;;;;;;2.72;1.02;;;;;;;11.10;90.15;101394.22;1705771;84;21009;-39
2021/05/25 01:00:45;;;;;;;4.28;1.02;;;;;;;11.05;90.29;101395.98;1705866;84;20903;-39
2021/05/25 01:03:15;;;;;;;3.47;1.00;;;;;;;11.00;90.42;101397.73;1706828;83;21531;-38
2021/05/25 01:05:43;;;;;;;2.00;0.70;;;;;;;10.95;90.62;101395.58;1719303;83;20946;-38
2021/05/25 01:08:09;;;;;;;2.72;1.10;;;;;;;10.89;90.67;101398.63;1719175;82;20982;-39
2021/05/25 01:10:41;;;;;;;7.75;1.50;;;;;;;10.84;90.68;101391.74;1719278;83;20990;-39
2021/05/25 01:13:16;;;;;;;2.92;0.80;;;;;;;10.76;90.74;101391.35;1719063;82;21013;-37
2021/05/25 01:15:39;;;;;;;5.55;1.10;;;;;;;10.69;90.88;101397.44;1718011;83;21123;-38
2021/05/25 01:18:08;;;;;;;5.28;1.10;;;;;;;10.61;91.00;101397.45;1719127;83;20989;-39
2021/05/25 01:20:37;;;;;;;2.08;1.07;;;;;;;10.54;91.15;101398.35;1719171;83;21438;-37
2021/05/25 01:23:05;;;;;;;1.42;1.32;;;;;;;10.50;91.45;101396.64;1719232;83;21036;-37
2021/05/25 01:25:33;;;;;;;5.47;0.98;;;;;;;10.49;91.82;101394.47;1719321;83;20957;-37
2021/05/25 01:28:03;;;;;;;3.33;1.10;;;;;;;10.47;91.89;101399.22;1719227;83;21013;-37
2021/05/25 01:30:34;;;;;;;5.53;1.22;;;;;;;10.42;91.98;101391.91;1719175;82;20970;-39
2021/05/25 01:33:01;;;;;;;3.60;1.20;;;;;;;10.37;92.06;101399.66;1718461;83;20958;-38
2021/05/25 01:35:28;;;;;;;3.10;1.10;;;;;;;10.32;92.13;101398.38;1719180;82;20981;-39
2021/05/25 01:37:57;;;;;;;6.58;1.00;;;;;;;10.27;92.32;101396.66;1719202;82;20926;-38
2021/05/25 01:40:24;;;;;;;1.47;1.10;;;;;;;10.25;92.47;101398.38;1719440;83;21104;-39
2021/05/25 01:42:51;;;;;;;4.53;0.98;;;;;;;10.22;92.58;101395.36;1719229;83;21109;-38
2021/05/25 01:45:20;;;;;;;3.33;0.90;;;;;;;10.21;92.61;101402.70;1719341;83;20895;-38
2021/05/25 01:47:47;;;;;;;1.20;1.10;;;;;;;10.19;92.70;101403.13;1719325;83;20977;-39
2021/05/25 01:50:16;;;;;;;4.70;1.10;;;;;;;10.14;92.80;101407.04;1719303;83;20922;-38
2021/05/25 01:52:56;;;;;;;3.22;1.30;;;;;;;10.10;92.84;101407.88;1719357;83;21084;-39
2021/05/25 01:55:41;;;;;;;8.73;1.07;;;;;;;10.06;92.85;101410.92;1719374;83;20997;-37
2021/05/25 01:58:17;;;;;;;7.93;1.30;;;;;;;10.01;92.91;101412.66;1719574;83;21014;-38
2021/05/25 02:00:58;;;;;;;1.55;1.05;;;;;;;9.97;92.99;101411.36;1719538;83;20942;-37
2021/05/25 02:03:25;;;;;;;1.05;0.95;;;;;;;9.94;93.08;101421.71;1719210;83;20982;-38
2021/05/25 02:05:51;;;;;;;2.47;1.05;;;;;;;9.91;93.23;101424.73;1719392;83;21082;-38
2021/05/25 02:08:19;;;;;;;2.58;1.10;;;;;;;9.89;93.32;101423.00;1719265;83;21328;-38
2021/05/25 02:10:48;;;;;;;5.00;1.17;;;;;;;9.89;93.43;101428.17;1719366;83;20970;-39
2021/05/25 02:13:22;;;;;;;2.25;0.90;;;;;;;9.88;93.51;101426.44;1719379;83;20949;-39
2021/05/25 02:15:51;;;;;;;5.45;1.37;;;;;;;9.88;93.61;101423.86;1719570;83;20982;-39
2021/05/25 02:18:32;;;;;;;2.02;1.20;;;;;;;9.88;93.67;101426.44;1719173;83;21083;-38
2021/05/25 02:21:02;;;;;;;3.72;1.20;;;;;;;9.87;93.72;101426.89;1719184;82;21033;-39
2021/05/25 02:23:31;;;;;;;1.90;1.00;;;;;;;9.88;93.86;101434.20;1719298;83;20970;-39
2021/05/25 02:25:58;;;;;;;2.35;1.20;;;;;;;9.88;93.94;101438.96;1719141;83;20989;-38
2021/05/25 02:28:25;;;;;;;3.65;0.85;;;;;;;9.90;93.98;101437.65;1719298;83;21475;-38
2021/05/25 02:30:52;;;;;;;1.42;1.00;;;;;;;9.91;94.02;101441.95;1719422;82;20985;-38
2021/05/25 02:33:21;;;;;;;0.90;0.90;;;;;;;9.92;94.05;101438.09;1719382;83;20961;-38
2021/05/25 02:35:49;;;;;;;1.40;1.20;;;;;;;9.94;94.09;101438.52;1719380;83;21001;-39
2021/05/25 02:38:16;;;;;;;1.20;1.10;;;;;;;9.96;94.15;101439.38;1719484;83;20930;-38
2021/05/25 02:40:46;;;;;;;5.05;1.35;;;;;;;9.97;94.18;101439.81;1719392;83;21041;-38
2021/05/25 02:43:14;;;;;;;4.90;1.87;;;;;;;9.98;94.23;101446.29;1719457;82;21065;-39
2021/05/25 02:45:42;;;;;;;4.62;1.17;;;;;;;10.00;94.20;101445.86;1719153;83;20950;-38
2021/05/25 02:48:09;;;;;;;1.92;1.40;;;;;;;10.02;94.19;101449.30;1692742;83;21467;-39
2021/05/25 02:50:36;;;;;;;2.22;1.12;;;;;;;10.05;94.20;101446.71;1719404;83;20950;-38
2021/05/25 02:53:02;;;;;;;2.65;1.10;;;;;;;10.09;94.22;101452.73;1719589;83;21535;-37
2021/05/25 02:55:32;;;;;;;4.25;1.80;;;;;;;10.12;94.21;101452.75;1719339;83;21682;-37
2021/05/25 02:58:00;;;;;;;1.75;1.00;;;;;;;10.19;94.25;101457.47;1719260;83;21001;-37
2021/05/25 03:00:33;;;;;;;5.17;1.30;;;;;;;10.26;94.30;101457.91;1719451;83;20930;-37
2021/05/25 03:03:00;;;;;;;1.07;1.07;;;;;;;10.31;94.24;101451.41;1719320;83;21010;-37
2021/05/25 03:05:27;;;;;;;8.13;1.60;;;;;;;10.35;94.10;101454.01;1719413;83;20998;-38
2021/05/25 03:07:56;;;;;;;1.07;1.07;;;;;;;10.43;94.04;101455.33;1719469;83;21094;-38
2021/05/25 03:10:27;;;;;;;8.50;1.30;;;;;;;10.51;93.94;101457.91;1719204;83;20986;-37
2021/05/25 03:12:54;;;;;;;1.90;1.20;;;;;;;10.60;93.82;101451.81;1719381;83;21009;-38
2021/05/25 03:15:25;;;;;;;2.37;1.35;;;;;;;10.68;93.63;101455.27;1719448;83;21009;-39
2021/05/25 03:18:00;;;;;;;2.40;1.30;;;;;;;10.76;93.08;101457.84;1719347;83;20935;-39
2021/05/25 03:20:27;;;;;;;4.67;1.30;;;;;;;10.88;92.66;101459.53;1719247;82;21019;-37
2021/05/25 03:22:54;;;;;;;5.37;1.25;;;;;;;10.97;92.17;101462.07;1719313;83;21048;-37
2021/05/25 03:25:21;;;;;;;6.17;1.20;;;;;;;11.04;91.76;101459.88;1719342;83;21041;-36
2021/05/25 03:27:48;;;;;;;3.10;1.00;;;;;;;11.12;91.30;101461.59;1719359;83;21495;-37
2021/05/25 03:30:18;;;;;;;4.85;1.30;;;;;;;11.20;90.94;101467.14;1719345;82;21535;-37
2021/05/25 03:32:45;;;;;;;3.65;1.10;;;;;;;11.29;90.44;101464.09;1719333;83;21092;-36
2021/05/25 03:35:13;;;;;;;2.22;1.07;;;;;;;11.36;89.76;101456.25;1719236;83;21009;-36
2021/05/25 03:37:40;;;;;;;4.95;1.00;;;;;;;11.43;89.25;101448.01;1719297;83;20934;-37
2021/05/25 03:40:10;;;;;;;4.00;1.00;;;;;;;11.55;88.90;101444.92;1719173;83;20998;-38
2021/05/25 03:42:36;;;;;;;3.83;1.00;;;;;;;11.68;88.53;101440.06;1719400;83;20974;-38
2021/05/25 03:45:05;;;;;;;3.45;0.70;;;;;;;11.86;88.11;101444.70;1719313;82;21097;-38
2021/05/25 03:47:32;;;;;;;4.87;1.27;;;;;;;12.04;87.50;101441.98;1719290;83;21025;-38
2021/05/25 03:50:07;;;;;;;3.47;1.20;;;;;;;12.28;87.00;101441.76;1719464;83;20965;-38
2021/05/25 03:52:27;;;;;;;4.70;1.20;;;;;;;12.54;86.57;101449.30;1717928;83;20985;-39
2021/05/25 03:54:57;;;;;;;0.80;0.80;;;;;;;12.85;85.41;101451.53;1692780;83;20962;-38
2021/05/25 03:59:51;;;;;;;0.70;0.70;;;;;;;13.36;83.17;101458.66;1692469;83;20980;-37
2021/05/25 04:02:17;;;;;;;2.12;0.80;;;;;;;13.55;81.81;101455.83;1719343;83;21018;-39
2021/05/25 04:04:44;;;;;;;1.98;0.85;;;;;;;13.75;80.82;101462.02;1715072;83;21054;-38
2021/05/25 04:07:12;;;;;;;0.80;0.70;;;;;;;13.95;79.82;101463.45;1705743;84;21647;-39
2021/05/25 04:09:39;;;;;;;1.98;0.90;;;;;;;14.17;79.04;101463.08;1705852;84;21818;-39
2021/05/25 04:12:07;;;;;;;1.90;0.98;;;;;;;14.39;77.82;101458.80;1705815;84;21010;-39
2021/05/25 04:14:34;;;;;;;4.78;0.80;;;;;;;14.58;76.69;101465.38;1705792;84;20963;-39
2021/05/25 04:17:00;;;;;;;4.30;0.90;;;;;;;14.77;75.78;101463.73;1705658;83;21013;-39
2021/05/25 04:19:26;;;;;;;3.62;0.80;;;;;;;14.83;74.31;101467.54;1705805;83;20939;-39
2021/05/25 04:21:55;;;;;;;3.25;1.02;;;;;;;14.89;72.81;101476.53;1705763;83;20954;-39
2021/05/25 04:24:21;;;;;;;6.78;0.98;;;;;;;14.93;72.59;101471.66;1705763;83;21560;-39
2021/05/25 04:26:48;;;;;;;3.62;0.85;;;;;;;15.14;72.77;101478.63;1705939;84;21413;-39
2021/05/25 04:29:14;;;;;;;2.47;0.80;;;;;;;15.30;71.95;101477.01;1705804;82;21445;-39
2021/05/25 04:31:41;;;;;;;4.00;0.80;;;;;;;15.45;71.70;101483.63;1705791;84;21563;-39
2021/05/25 04:34:08;;;;;;;1.95;0.90;;;;;;;15.68;70.86;101486.16;1705801;84;21898;-38
2021/05/25 04:36:34;;;;;;;4.28;0.90;;;;;;;15.89;70.18;101481.73;1705650;84;21650;-38
2021/05/25 04:39:02;;;;;;;2.08;0.68;;;;;;;15.95;66.59;101485.95;1705807;82;21441;-38
2021/05/25 04:41:28;;;;;;;0.98;0.70;;;;;;;16.05;67.49;101484.85;1705826;84;20958;-38
2021/05/25 04:43:55;;;;;;;0.80;0.80;;;;;;;16.16;67.77;101479.80;1705765;84;20914;-38
2021/05/25 04:46:21;;;;;;;6.53;0.80;;;;;;;16.32;67.45;101474.59;1705773;84;21097;-38
2021/05/25 04:48:47;;;;;;;2.12;0.72;;;;;;;16.48;67.04;101471.11;1705840;84;21618;-38
2021/05/25 04:51:14;;;;;;;1.07;0.65;;;;;;;16.69;65.86;101464.02;1705884;84;21534;-38
2021/05/25 04:53:41;;;;;;;1.37;0.70;;;;;;;16.91;65.34;101468.17;1705751;84;21560;-38
2021/05/25 04:56:07;;;;;;;2.37;1.00;;;;;;;17.12;64.18;101470.66;1705825;84;21496;-38
2021/05/25 04:58:34;;;;;;;2.80;0.70;;;;;;;17.27;64.27;101465.85;1705791;84;21833;-38
2021/05/25 05:01:02;;;;;;;0.82;0.70;;;;;;;17.32;63.40;101473.13;1705769;84;20982;-38
2021/05/25 05:03:30;;;;;;;1.65;0.70;;;;;;;17.47;62.52;101469.18;1705597;84;20959;-39
2021/05/25 05:05:56;;;;;;;3.17;0.70;;;;;;;17.54;60.88;101470.69;1711146;83;20937;-39
2021/05/25 05:08:23;;;;;;;0.60;0.60;;;;;;;17.51;61.11;101470.32;1713618;83;21021;-38
2021/05/25 05:10:49;;;;;;;1.55;0.88;;;;;;;17.67;61.41;101468.07;1713606;83;21064;-39
2021/05/25 05:13:17;;;;;;;1.50;0.72;;;;;;;17.95;61.52;101471.55;1713459;83;20982;-39
2021/05/25 05:15:46;;;;;;;0.80;0.72;;;;;;;18.10;60.14;101470.22;1713610;83;20935;-39
2021/05/25 05:18:13;;;;;;;1.30;0.78;;;;;;;18.24;59.95;101473.23;1713628;83;21085;-39
2021/05/25 05:20:40;;;;;;;1.37;0.80;;;;;;;18.35;59.81;101469.37;1713601;83;20966;-39
2021/05/25 05:23:06;;;;;;;2.25;0.88;;;;;;;18.43;58.96;101467.79;1713612;83;21106;-39
2021/05/25 05:25:33;;;;;;;2.52;0.82;;;;;;;18.29;59.51;101473.52;1713665;83;20902;-38
2021/05/25 05:27:59;;;;;;;2.87;1.17;;;;;;;18.34;59.84;101471.15;1713916;83;20986;-39
2021/05/25 05:30:26;;;;;;;2.52;0.72;;;;;;;18.58;58.56;101460.70;1713666;82;21001;-39
2021/05/25 05:32:53;;;;;;;1.67;0.88;;;;;;;18.77;58.25;101465.25;1713831;83;20974;-38
2021/05/25 05:35:19;;;;;;;4.03;0.60;;;;;;;18.81;56.89;101462.91;1713688;83;21097;-38
2021/05/25 05:37:46;;;;;;;5.60;0.80;;;;;;;18.85;57.24;101455.34;1713700;83;20978;-38
2021/05/25 05:40:15;;;;;;;1.90;0.80;;;;;;;19.04;57.35;101461.22;1713740;83;20942;-39
2021/05/25 05:42:41;;;;;;;2.00;0.80;;;;;;;19.22;56.72;101465.77;1713670;83;20950;-39
2021/05/25 05:45:10;;;;;;;1.45;0.78;;;;;;;19.25;56.71;101463.49;1713898;83;20962;-39
2021/05/25 05:47:36;;;;;;;4.87;1.55;;;;;;;19.43;56.72;101461.03;1713686;82;21102;-39
2021/05/25 05:50:10;;;;;;;2.62;0.70;;;;;;;19.69;55.63;101461.31;1713761;83;21010;-39
2021/05/25 05:52:32;;;;;;;1.02;0.85;;;;;;;19.86;54.57;101458.45;1712996;83;20954;-39
2021/05/25 05:54:59;;;;;;;0.80;0.80;;;;;;;19.88;53.98;101457.92;1713874;83;20930;-39
2021/05/25 05:57:26;;;;;;;1.82;0.95;;;;;;;19.72;54.87;101454.61;1713797;83;21570;-39
2021/05/25 05:59:53;;;;;;;1.30;0.78;;;;;;;19.71;54.21;101454.22;1713792;83;21044;-39
2021/05/25 06:02:19;;;;;;;1.50;0.90;;;;;;;19.59;54.16;101459.51;1713739;83;21574;-39
2021/05/25 06:04:45;;;;;;;0.78;0.60;;;;;;;19.52;54.56;101461.52;1713470;83;21428;-39
2021/05/25 06:07:13;;;;;;;5.40;1.12;;;;;;;19.49;55.21;101464.75;1705848;83;21022;-38
2021/05/25 06:09:40;;;;;;;1.50;0.82;;;;;;;19.43;54.22;101463.22;1705872;84;21002;-39
2021/05/25 06:12:09;;;;;;;4.05;0.88;;;;;;;19.32;54.51;101470.64;1686077;84;21086;-38
2021/05/25 06:14:36;;;;;;;1.65;0.60;;;;;;;19.31;54.43;101471.12;1705965;84;21567;-39
2021/05/25 06:17:03;;;;;;;2.47;0.75;;;;;;;19.23;55.49;101467.47;1705876;84;21014;-39
2021/05/25 06:19:29;;;;;;;5.53;0.80;;;;;;;19.36;55.70;101467.84;1705822;82;20990;-39
2021/05/25 06:21:56;;;;;;;7.20;1.02;;;;;;;19.56;54.76;101469.27;1705963;83;20935;-39
2021/05/25 06:24:22;;;;;;;2.75;0.82;;;;;;;19.74;53.88;101463.28;1705808;84;21087;-39
2021/05/25 06:26:49;;;;;;;4.80;0.80;;;;;;;19.88;52.48;101461.87;1705830;83;21013;-39
2021/05/25 06:29:16;;;;;;;1.70;0.75;;;;;;;19.84;53.34;101464.23;1705782;82;21002;-39
2021/05/25 06:31:42;;;;;;;1.30;0.95;;;;;;;19.93;53.73;101464.70;1705949;84;21018;-39
2021/05/25 06:34:09;;;;;;;1.92;0.70;;;;;;;20.09;53.57;101458.81;1705946;84;21014;-38
2021/05/25 06:36:35;;;;;;;1.72;1.00;;;;;;;20.13;53.34;101458.23;1705944;83;21034;-39
2021/05/25 06:39:04;;;;;;;8.50;0.72;;;;;;;20.24;51.69;101461.23;1705964;84;20978;-39
2021/05/25 06:41:30;;;;;;;1.37;0.90;;;;;;;20.17;51.30;101458.48;1705923;84;20900;-38
2021/05/25 06:43:58;;;;;;;2.12;0.90;;;;;;;20.13;51.71;101455.13;1705756;84;20990;-38
2021/05/25 06:46:25;;;;;;;2.70;0.90;;;;;;;20.21;51.76;101451.73;1705776;84;20979;-39
2021/05/25 06:48:51;;;;;;;2.33;0.70;;;;;;;20.26;51.52;101452.83;1705917;82;21059;-38
2021/05/25 06:51:18;;;;;;;1.22;0.80;;;;;;;20.30;50.32;101453.08;1705828;84;20907;-38
2021/05/25 06:53:46;;;;;;;4.58;0.82;;;;;;;20.25;50.80;101449.80;1705775;84;20985;-39
2021/05/25 06:56:12;;;;;;;2.30;0.80;;;;;;;20.28;51.60;101449.66;1705794;84;21002;-39
2021/05/25 06:58:39;;;;;;;9.63;1.20;;;;;;;20.28;51.48;101461.49;1685677;84;21006;-39
2021/05/25 07:01:06;;;;;;;3.40;0.78;;;;;;;20.31;51.11;101457.41;1705896;84;21096;-39
2021/05/25 07:03:32;;;;;;;2.15;0.85;;;;;;;20.41;52.30;101458.34;1705858;84;20931;-39
2021/05/25 07:05:59;;;;;;;1.55;0.62;;;;;;;20.57;51.32;101451.45;1711487;83;20950;-39
2021/05/25 07:08:26;;;;;;;2.83;0.75;;;;;;;20.67;50.81;101442.25;1719154;82;21396;-39
2021/05/25 07:10:53;;;;;;;2.22;0.75;;;;;;;20.84;51.22;101442.43;1719390;83;20974;-39
2021/05/25 07:13:20;;;;;;;4.45;0.70;;;;;;;21.00;50.76;101437.30;1719329;83;21094;-39
2021/05/25 07:15:48;;;;;;;2.27;0.93;;;;;;;21.20;50.83;101431.08;1719197;83;20998;-39
2021/05/25 07:18:16;;;;;;;2.17;0.80;;;;;;;21.39;50.15;101423.16;1719371;82;20930;-39
2021/05/25 07:20:47;;;;;;;2.33;0.90;;;;;;;21.46;49.78;101421.93;1719267;83;20939;-39
2021/05/25 07:23:13;;;;;;;6.53;0.80;;;;;;;21.44;49.37;101416.34;1719517;83;20958;-39
2021/05/25 07:25:40;;;;;;;1.65;0.90;;;;;;;21.36;49.35;101407.52;1719345;83;21081;-39
2021/05/25 07:28:06;;;;;;;6.03;0.90;;;;;;;21.38;49.50;101407.81;1719257;83;20902;-38
2021/05/25 07:30:33;;;;;;;4.33;1.02;;;;;;;21.40;49.78;101397.22;1719204;82;20958;-38
2021/05/25 07:32:59;;;;;;;2.15;1.17;;;;;;;21.39;48.00;101394.20;1719374;83;21025;-37
2021/05/25 07:35:27;;;;;;;1.10;0.80;;;;;;;21.30;49.36;101400.77;1719204;83;20966;-38
2021/05/25 07:37:54;;;;;;;1.32;0.75;;;;;;;21.22;49.82;101389.29;1719481;83;21095;-38
2021/05/25 07:40:21;;;;;;;6.08;0.72;;;;;;;21.17;49.81;101386.48;1719151;83;20985;-38
2021/05/25 07:42:48;;;;;;;2.72;0.70;;;;;;;21.32;50.24;101385.75;1719402;83;21006;-38
2021/05/25 07:45:15;;;;;;;1.95;0.70;;;;;;;21.56;49.11;101391.17;1719412;83;21514;-38
2021/05/25 07:47:43;;;;;;;1.10;1.00;;;;;;;21.67;49.64;101390.22;1719267;83;21013;-38
2021/05/25 07:50:14;;;;;;;4.53;0.90;;;;;;;21.84;49.12;101385.84;1719240;83;21073;-38
2021/05/25 07:52:50;;;;;;;3.45;0.82;;;;;;;21.92;47.75;101391.11;1719364;83;21452;-38
2021/05/25 07:55:21;;;;;;;7.45;0.60;;;;;;;22.02;47.45;101388.02;1718585;83;21589;-38
2021/05/25 07:57:48;;;;;;;2.05;0.70;;;;;;;22.21;47.92;101386.58;1719303;83;21519;-39
2021/05/25 08:00:16;;;;;;;0.60;0.60;;;;;;;22.39;46.93;101386.05;1719448;82;21583;-38
2021/05/25 08:02:43;;;;;;;3.37;0.82;;;;;;;22.35;46.51;101388.48;1719432;83;21110;-38
2021/05/25 08:05:11;;;;;;;1.65;0.72;;;;;;;22.30;45.29;101386.08;1719203;83;21006;-38
2021/05/25 08:07:37;;;;;;;3.22;0.78;;;;;;;22.27;43.80;101375.70;1706256;83;21401;-39
2021/05/25 08:10:06;;;;;;;2.60;0.75;;;;;;;22.07;45.35;101388.14;1705806;84;20899;-38
2021/05/25 08:12:32;;;;;;;3.25;0.60;;;;;;;22.18;45.81;101388.06;1705900;84;20911;-38
2021/05/25 08:15:01;;;;;;;2.77;0.62;;;;;;;22.35;45.46;101383.20;1705719;84;22169;-38
2021/05/25 08:22:54;;;;;;;4.17;0.57;;;;;;;22.37;45.22;101391.43;1705872;84;20923;-38
2021/05/25 08:25:25;;;;;;;3.05;0.70;;;;;;;22.42;44.35;101365.27;1705809;84;20958;-38
2021/05/25 08:27:52;;;;;;;5.30;0.75;;;;;;;22.55;44.82;101373.41;1705945;84;21077;-38
2021/05/25 08:30:23;;;;;;;1.77;0.62;;;;;;;22.70;44.08;101368.58;1705699;82;22287;-38
2021/05/25 08:32:50;;;;;;;0.90;0.53;;;;;;;22.64;44.16;101368.92;1705695;82;20931;-39
2021/05/25 08:35:19;;;;;;;0.70;0.70;;;;;;;22.72;44.53;101373.30;1705651;84;21520;-39
2021/05/25 08:37:49;;;;;;;4.35;1.00;;;;;;;22.81;43.78;101366.66;1705531;83;21030;-39
2021/05/25 08:40:18;;;;;;;4.20;1.02;;;;;;;22.82;44.22;101367.05;1704479;84;21696;-39
2021/05/25 08:42:46;;;;;;;1.57;0.60;;;;;;;22.82;44.39;101364.41;1705854;84;20998;-38
2021/05/25 08:45:14;;;;;;;2.02;0.70;;;;;;;22.84;44.01;101369.61;1685916;84;21599;-38
2021/05/25 08:47:41;;;;;;;5.47;0.90;;;;;;;22.90;44.10;101363.98;1705768;84;20930;-39
2021/05/25 08:50:12;;;;;;;2.50;0.88;;;;;;;22.99;44.30;101363.48;1705749;84;20939;-38
2021/05/25 08:52:38;;;;;;;5.12;0.88;;;;;;;22.99;44.26;101369.21;1705851;83;21717;-38
2021/05/25 08:55:07;;;;;;;2.30;0.90;;;;;;;23.07;44.82;101369.62;1705662;83;20971;-40
2021/05/25 08:57:33;;;;;;;0.88;0.57;;;;;;;23.19;44.07;101372.03;1705646;82;20943;-38
2021/05/25 09:00:00;;;;;;;1.22;0.70;;;;;;;23.22;44.63;101370.07;1705623;84;20942;-38
2021/05/25 09:02:27;;;;;;;9.65;1.22;;;;;;;23.36;44.49;101361.83;1705733;84;20986;-38
2021/05/25 09:05:11;;;;;;;4.67;0.90;;;;;;;23.47;44.93;101370.00;1705756;84;21096;-38
2021/05/25 09:07:48;;;;;;;5.17;0.80;;;;;;;23.62;43.79;101359.45;1716701;83;21388;-38
2021/05/25 09:10:20;;;;;;;4.08;1.50;;;;;;;23.64;44.40;101364.20;1719308;83;20882;-38
2021/05/25 09:12:52;;;;;;;1.75;0.72;;;;;;;23.76;45.40;101369.22;1719214;83;21021;-38
2021/05/25 09:15:42;;;;;;;1.27;0.88;;;;;;;24.05;44.33;101374.56;1719324;83;21455;-38
2021/05/25 09:18:14;;;;;;;2.25;0.78;;;;;;;24.21;44.12;101371.33;1719273;83;21023;-39
2021/05/25 09:22:03;;;;;;;0.60;0.60;;;;;;;24.24;43.67;101366.33;1776388;79;22957;-39
2021/05/25 09:24:40;;;;;;;2.52;1.00;;;;;;;24.25;42.95;101368.90;1720304;82;20914;-39
2021/05/25 09:27:06;;;;;;;4.92;0.98;;;;;;;24.32;43.79;101365.86;1749025;82;21166;-39
2021/05/25 09:29:34;;;;;;;2.58;0.70;;;;;;;24.41;42.58;101369.24;1718219;82;21009;-39
2021/05/25 09:32:01;;;;;;;6.87;0.80;;;;;;;24.53;42.69;101368.94;1749008;80;20990;-39
2021/05/25 09:34:27;;;;;;;2.72;0.80;;;;;;;24.73;42.62;101372.13;1694679;80;20938;-39
2021/05/25 09:37:05;;;;;;;1.62;1.10;;;;;;;24.89;41.57;101364.06;1748938;82;21061;-39
2021/05/25 09:39:42;;;;;;;4.90;0.80;;;;;;;24.68;41.08;101358.72;1749014;82;21657;-39
2021/05/25 09:42:10;;;;;;;0.75;0.75;;;;;;;24.51;42.18;101354.96;1749024;82;20966;-38
2021/05/25 09:44:37;;;;;;;2.27;1.00;;;;;;;24.53;42.77;101357.90;1749047;82;20958;-39
2021/05/25 09:47:05;;;;;;;1.07;0.88;;;;;;;24.64;42.73;101354.57;1748892;82;20993;-39
2021/05/25 09:49:32;;;;;;;2.80;1.00;;;;;;;24.79;42.79;101351.44;1749044;82;20954;-39
2021/05/25 09:52:06;;;;;;;4.25;1.05;;;;;;;24.96;42.21;101349.47;1749004;80;21093;-39
2021/05/25 09:54:33;;;;;;;1.10;0.70;;;;;;;25.14;40.30;101343.45;1748387;82;21037;-40
2021/05/25 09:57:02;;;;;;;2.05;0.78;;;;;;;25.27;41.30;101345.27;1749042;82;20934;-38
2021/05/25 09:59:37;;;;;;;1.50;1.17;;;;;;;25.44;40.10;101345.45;1748963;82;20945;-39
2021/05/25 10:02:22;;;;;;;1.95;0.95;;;;;;;25.45;40.57;101342.72;1749046;81;21463;-39
2021/05/25 10:05:08;;;;;;;1.12;0.72;;;;;;;25.61;40.72;101349.17;1749096;82;21087;-38
2021/05/25 10:07:35;;;;;;;2.80;1.32;;;;;;;25.81;39.42;101342.48;1749203;82;20974;-39
2021/05/25 10:10:04;;;;;;;1.47;0.82;;;;;;;25.98;40.76;101339.15;1749003;82;21025;-40
2021/05/25 10:12:31;;;;;;;2.92;1.00;;;;;;;26.29;39.50;101342.30;1748844;80;20915;-40
2021/05/25 10:15:00;;;;;;;11.53;1.05;;;;;;;26.49;38.17;101339.53;1749046;82;20903;-40
2021/05/25 10:20:10;;;;;;;2.47;0.88;;;;;;;26.38;38.44;101338.98;1748764;81;20993;-40
2021/05/25 10:22:38;;;;;;;3.75;0.90;;;;;;;26.63;38.14;101338.53;1749588;82;20954;-40
2021/05/25 10:25:08;;;;;;;1.87;0.93;;;;;;;26.47;38.57;101336.64;1749731;82;21049;-40
2021/05/25 10:27:34;;;;;;;5.95;1.05;;;;;;;26.13;38.43;101335.89;1749746;82;20958;-40
2021/05/25 10:30:01;;;;;;;5.03;1.05;;;;;;;25.93;38.40;101332.00;1749869;82;21060;-40
2021/05/25 10:32:27;;;;;;;4.55;1.10;;;;;;;26.10;40.23;101334.29;1749491;82;21555;-40
2021/05/25 10:34:54;;;;;;;6.78;0.90;;;;;;;26.57;38.71;101342.14;1749397;82;21058;-40
2021/05/25 10:37:22;;;;;;;1.85;0.85;;;;;;;26.81;37.91;101332.84;1749144;80;21520;-40
2021/05/25 10:39:56;;;;;;;7.20;1.20;;;;;;;26.96;38.50;101341.04;1749200;82;21034;-40
2021/05/25 10:42:29;;;;;;;2.62;1.02;;;;;;;27.18;37.19;101335.45;1749378;82;21730;-39
2021/05/25 10:45:13;;;;;;;4.78;0.80;;;;;;;27.12;35.41;101325.27;1749255;82;21017;-39
2021/05/25 10:53:03;;;;;;;2.73;0.70;;;;;;;25.82;38.88;101323.47;1749584;82;20938;-39
2021/05/25 10:55:38;;;;;;;0.90;0.90;;;;;;;25.82;39.73;101323.47;1749175;82;21171;-39
2021/05/25 10:58:29;;;;;;;1.55;1.02;;;;;;;25.82;38.17;101325.63;1749342;80;20974;-39
2021/05/25 11:00:53;;;;;;;3.27;1.02;;;;;;;25.67;38.89;101322.73;1748792;82;20934;-39
2021/05/25 11:03:21;;;;;;;2.42;0.90;;;;;;;25.78;39.90;101313.55;1749272;82;21590;-40
2021/05/25 11:05:55;;;;;;;4.40;0.78;;;;;;;26.05;40.89;101307.25;1749178;82;21050;-40
2021/05/25 11:08:31;;;;;;;2.75;1.02;;;;;;;26.49;39.75;101299.73;1749170;82;21078;-40
2021/05/25 11:11:13;;;;;;;2.60;1.00;;;;;;;26.88;40.25;101290.28;1749063;80;21069;-41
2021/05/25 11:13:45;;;;;;;2.52;0.65;;;;;;;27.37;37.70;101288.38;1749265;82;21547;-40
2021/05/25 11:16:35;;;;;;;2.60;1.00;;;;;;;27.74;37.33;101287.36;1749243;80;21519;-41
2021/05/25 11:19:11;;;;;;;1.55;0.82;;;;;;;28.08;35.78;101283.34;1749145;82;20887;-40
2021/05/25 11:24:45;;;;;;;3.27;1.15;;;;;;;28.29;34.79;101274.63;1735140;82;20927;-39
2021/05/25 11:27:45;;;;;;;2.27;0.70;;;;;;;28.25;35.61;101281.17;1734537;82;21002;-39
2021/05/25 11:30:28;;;;;;;1.65;0.78;;;;;;;28.10;35.91;101268.59;1735117;82;20990;-39
2021/05/25 11:32:58;;;;;;;1.07;0.68;;;;;;;28.15;35.25;101261.55;1735273;82;21018;-40
2021/05/25 11:35:26;;;;;;;3.58;0.80;;;;;;;28.38;34.63;101261.89;1735235;82;21057;-39
2021/05/25 11:37:55;;;;;;;2.55;0.93;;;;;;;28.37;32.88;101248.22;1735328;82;21571;-40
2021/05/25 11:40:26;;;;;;;2.90;0.65;;;;;;;27.65;35.24;101253.03;1735249;82;20951;-40
2021/05/25 11:42:54;;;;;;;6.03;1.07;;;;;;;27.38;35.74;101252.88;1735192;82;20884;-39
2021/05/25 11:45:24;;;;;;;3.22;1.07;;;;;;;27.14;35.29;101252.94;1735232;81;20978;-39
2021/05/25 11:47:58;;;;;;;4.08;0.90;;;;;;;26.78;36.72;101264.90;1735164;82;21078;-40
2021/05/25 11:50:26;;;;;;;5.53;0.95;;;;;;;26.54;37.02;101266.22;1735339;82;20962;-39
2021/05/25 11:52:54;;;;;;;1.67;0.95;;;;;;;26.61;37.83;101267.45;1735273;82;21006;-41
2021/05/25 11:55:23;;;;;;;2.87;0.80;;;;;;;26.99;39.18;101267.41;1735055;81;20963;-41